Main page
METAR-TAF:

METAR-TAF

Airports :

Skyhaven Airport

Rochester, New Hampshire, United States

latitude: 43-16-41N, longitude: 070-55-20W, elevation: 321 ft

Current weather observation

The report was made 23 minutes ago, at 09:51 UTC
Wind 7 mph from the North/Northwest
Temperature 46°F
Humidity 61%
Pressure 30.08 in. Hg
Visibility: 10 miles
Clear sky

METAR: KDAW 220951Z AUTO 34006KT 10SM CLR 08/01 A3008 RMK AO2 SLP185 T00830006

Time: 06:14 (10:14 UTC)


TAF: missing

Weather observations and forecasts of more than 4000 airports (METAR and TAF reports).

The available stations are represented by yellow and red dots on the map.

Hover mouse over dot to see the name of the station.

Then click to see weather observations and forecasts.

To change the map : click on the green buttons with a black cross to zoom in, on the green button with a dash to zoom out, or on the green arrows for adjacent maps.


METAR-TAF: